Terminal Aerodrome Forecast
Issued by NWS

Home | Current Version | Previous Version | Text Only | Print | Product List | Glossary On
Versions: 1 2 3 4 5 6 7 8 9 10 11 12
000
FTUS45 KFGZ 190539
TAFPRC
TAF
KPRC 190539Z 1906/2006 20020G31KT P6SM SCT035
     FM190900 20023G31KT P6SM SCT025 BKN035
     FM191500 20025G35KT P6SM BKN020 OVC030
      TEMPO 1919/1923 5SM -SHSNRA OVC020
     FM200100 24013G21KT P6SM BKN050=

USA.gov is the U.S. government's official web portal to all federal, state and local government web resources and services.